Time;durP1;ratioP1;P1;durP2;ratioP2;P2;SDS_P1;SDS_P2;PMS_P1;PMS_P2;Temp;Humidity;BMP_temperature;BMP_pressure;BME280_temperature;BME280_humidity;BME280_pressure;Samples;Min_cycle;Max_cycle;Signal;HPM_P1;HPM_P2
2022/03/02 00:02:37;;;;;;;34.60;14.32;;;;;;;-5.76;100.00;100961.00;4740831;30;20069;-84
2022/03/02 00:07:25;;;;;;;37.83;15.60;;;;;;;-5.64;100.00;101014.47;4761123;30;20112;-84
2022/03/02 00:20:55;;;;;;;33.50;14.38;;;;;;;-5.64;100.00;101022.13;4741565;30;20068;-84
2022/03/02 00:31:57;;;;;;;38.70;15.27;;;;;;;-6.10;100.00;100935.22;5068641;23;20059;-84
2022/03/02 00:35:19;;;;;;;44.20;15.23;;;;;;;-6.11;100.00;100946.19;4923413;29;20046;-84
2022/03/02 00:43:51;;;;;;;126.05;24.63;;;;;;;-6.20;100.00;100923.59;4847891;29;20043;-84
2022/03/02 00:48:04;;;;;;;136.43;28.65;;;;;;;-6.06;100.00;100921.84;4829851;29;20058;-84
2022/03/02 00:56:09;;;;;;;167.52;33.00;;;;;;;-5.88;100.00;100960.31;4842913;29;20047;-85
2022/03/02 01:00:16;;;;;;;166.68;37.63;;;;;;;-5.76;100.00;100983.09;4839182;29;20099;-84
2022/03/02 01:04:03;;;;;;;204.30;42.90;;;;;;;-5.98;100.00;100942.72;4847797;29;20086;-84
2022/03/02 01:08:15;;;;;;;136.68;34.25;;;;;;;-5.78;100.00;100975.38;4793884;30;20102;-84
2022/03/02 01:12:02;;;;;;;69.85;22.10;;;;;;;-5.93;100.00;100957.50;4848116;29;20102;-84
2022/03/02 01:14:52;;;;;;;56.88;18.40;;;;;;;-6.24;100.00;100901.25;4917070;29;20040;-84
2022/03/02 01:17:37;;;;;;;44.88;15.20;;;;;;;-6.14;100.00;100915.44;4896349;29;20120;-84
2022/03/02 01:20:27;;;;;;;40.88;16.50;;;;;;;-5.76;100.00;100955.03;4909664;29;20047;-84
2022/03/02 01:23:12;;;;;;;39.25;17.17;;;;;;;-5.87;100.00;100945.09;4906283;29;20028;-84
2022/03/02 01:25:59;;;;;;;36.78;14.93;;;;;;;-6.13;100.00;100900.22;4909245;29;20041;-84
2022/03/02 01:28:44;;;;;;;28.73;14.70;;;;;;;-6.26;100.00;100884.09;4909065;29;20056;-84
2022/03/02 01:31:32;;;;;;;35.45;14.82;;;;;;;-6.13;100.00;100907.88;4896121;29;20092;-84
2022/03/02 01:34:18;;;;;;;38.10;14.50;;;;;;;-6.12;100.00;100901.97;4909316;29;20040;-83
2022/03/02 01:37:04;;;;;;;36.80;13.75;;;;;;;-6.26;100.00;100877.31;4909126;29;20114;-84
2022/03/02 01:39:49;;;;;;;36.17;15.52;;;;;;;-5.92;100.00;100938.81;4906509;29;20056;-84
2022/03/02 01:42:34;;;;;;;33.35;15.18;;;;;;;-6.20;100.00;100885.34;4910130;29;20108;-83
2022/03/02 01:45:21;;;;;;;33.65;14.60;;;;;;;-6.26;100.00;100871.34;4928585;29;20044;-82
2022/03/02 01:48:07;;;;;;;33.72;15.77;;;;;;;-6.16;100.00;100888.94;4928403;29;20042;-82
2022/03/02 01:50:53;;;;;;;40.72;16.23;;;;;;;-6.27;100.00;100859.38;4941930;29;20054;-82
2022/03/02 01:53:39;;;;;;;78.25;27.48;;;;;;;-6.28;100.00;100862.72;4928432;29;20047;-83
2022/03/02 01:56:25;;;;;;;101.53;32.55;;;;;;;-6.14;100.00;100866.97;4930704;29;20039;-82
2022/03/02 01:59:10;;;;;;;87.47;29.98;;;;;;;-6.13;100.00;100872.16;4902973;29;20068;-82
2022/03/02 02:01:59;;;;;;;77.13;28.65;;;;;;;-6.26;100.00;100850.94;4916483;29;20047;-82
2022/03/02 02:04:45;;;;;;;82.75;28.73;;;;;;;-6.20;100.00;100872.59;4931953;29;20121;-82
2022/03/02 02:07:30;;;;;;;71.07;26.05;;;;;;;-6.23;100.00;100854.56;4931790;29;20036;-83
2022/03/02 02:10:16;;;;;;;74.65;27.95;;;;;;;-5.97;100.00;100893.47;4915912;29;20036;-82
2022/03/02 02:13:02;;;;;;;75.65;29.02;;;;;;;-6.41;100.00;100825.41;4932026;29;20056;-82
2022/03/02 02:15:47;;;;;;;68.68;23.75;;;;;;;-6.24;100.00;100864.66;4931717;29;20032;-82
2022/03/02 02:18:33;;;;;;;56.55;20.30;;;;;;;-6.45;100.00;100819.25;4931760;29;20051;-82
2022/03/02 02:21:19;;;;;;;65.10;24.02;;;;;;;-6.33;100.00;100861.59;4929060;29;20036;-82
2022/03/02 02:24:04;;;;;;;58.25;19.25;;;;;;;-6.18;100.00;100893.06;4931991;29;20028;-83
2022/03/02 02:26:50;;;;;;;46.92;18.42;;;;;;;-6.22;100.00;100893.69;4931909;29;20134;-82
2022/03/02 02:29:37;;;;;;;46.58;18.20;;;;;;;-6.40;100.00;100868.88;4909114;29;20127;-83
2022/03/02 02:32:22;;;;;;;43.47;17.50;;;;;;;-6.45;100.00;100869.38;4922198;29;20031;-82
2022/03/02 02:35:09;;;;;;;39.72;14.85;;;;;;;-6.67;100.00;100806.91;4950671;28;20035;-82
2022/03/02 02:37:55;;;;;;;38.78;16.45;;;;;;;-6.53;100.00;100822.13;4964473;29;20040;-82
2022/03/02 02:40:40;;;;;;;36.22;14.93;;;;;;;-6.18;100.00;100875.22;4937161;29;20031;-82
2022/03/02 02:43:25;;;;;;;35.10;15.07;;;;;;;-6.65;100.00;100801.91;4950740;28;20071;-82
2022/03/02 02:46:12;;;;;;;38.08;14.75;;;;;;;-6.29;100.00;100882.25;4950523;28;20051;-82
2022/03/02 02:48:57;;;;;;;38.50;16.33;;;;;;;-6.59;100.00;100821.00;4964134;28;20038;-82
2022/03/02 02:51:43;;;;;;;42.45;15.63;;;;;;;-6.76;100.00;100808.03;4950553;28;20032;-82
2022/03/02 02:54:28;;;;;;;38.50;16.92;;;;;;;-6.71;100.00;100820.25;4964170;29;20048;-82
2022/03/02 02:57:14;;;;;;;34.58;15.43;;;;;;;-6.83;100.00;100789.81;4936813;28;20047;-82
2022/03/02 03:00:00;;;;;;;33.75;14.38;;;;;;;-6.71;100.00;100830.44;4937040;28;20048;-82
2022/03/02 03:02:50;;;;;;;42.08;16.85;;;;;;;-6.83;100.00;100794.91;4963357;28;20067;-82
2022/03/02 03:05:36;;;;;;;32.05;15.52;;;;;;;-6.80;100.00;100799.31;4936871;28;20035;-83
2022/03/02 03:08:21;;;;;;;37.55;17.00;;;;;;;-6.68;100.00;100817.91;4948577;29;20042;-82
2022/03/02 03:11:07;;;;;;;41.80;16.25;;;;;;;-6.79;100.00;100798.56;4947488;29;20047;-82
2022/03/02 03:13:52;;;;;;;40.15;16.38;;;;;;;-6.70;100.00;100823.69;4949986;28;20050;-82
2022/03/02 03:16:41;;;;;;;39.22;16.98;;;;;;;-6.87;100.00;100799.75;4963676;28;20051;-82
2022/03/02 03:19:26;;;;;;;42.97;16.98;;;;;;;-6.85;100.00;100823.66;4936509;29;20034;-82
2022/03/02 03:22:11;;;;;;;36.55;15.30;;;;;;;-7.02;100.00;100796.25;4963283;28;20047;-82
2022/03/02 03:24:56;;;;;;;36.28;16.10;;;;;;;-6.98;100.00;100804.19;4936332;28;20024;-82
2022/03/02 03:27:42;;;;;;;41.85;16.20;;;;;;;-6.99;100.00;100784.59;4949663;28;20039;-82
2022/03/02 03:30:28;;;;;;;46.90;17.65;;;;;;;-7.02;100.00;100779.31;4936411;28;20028;-82
2022/03/02 03:33:14;;;;;;;40.35;16.92;;;;;;;-7.02;100.00;100781.84;4936167;29;20066;-82
2022/03/02 03:35:59;;;;;;;42.85;16.30;;;;;;;-7.00;100.00;100787.06;4949510;29;20059;-82
2022/03/02 03:39:16;;;;;;;40.15;16.58;;;;;;;-6.83;100.00;100812.75;5340378;23;20044;-84
2022/03/02 03:42:23;;;;;;;40.15;16.40;;;;;;;-7.10;100.00;100770.34;4944277;29;20047;-83
2022/03/02 03:45:09;;;;;;;37.47;15.55;;;;;;;-6.65;100.00;100850.34;4930451;29;20082;-83
2022/03/02 03:47:55;;;;;;;39.78;16.30;;;;;;;-7.06;100.00;100768.06;4944007;29;20039;-83
2022/03/02 03:50:42;;;;;;;36.80;15.55;;;;;;;-6.71;100.00;100843.19;4917340;29;20096;-83
2022/03/02 03:53:27;;;;;;;40.28;15.18;;;;;;;-6.95;100.00;100811.16;4943703;29;20107;-83
2022/03/02 03:56:13;;;;;;;35.20;15.95;;;;;;;-6.79;100.00;100846.97;4930250;29;20032;-83
2022/03/02 03:59:01;;;;;;;36.65;15.90;;;;;;;-7.14;100.00;100782.00;4929860;29;20066;-83
2022/03/02 04:01:46;;;;;;;34.67;15.65;;;;;;;-6.79;100.00;100849.50;4916534;29;20064;-83
2022/03/02 04:04:32;;;;;;;36.58;16.35;;;;;;;-6.79;100.00;100843.50;4943506;29;20048;-83
2022/03/02 04:07:17;;;;;;;40.58;15.93;;;;;;;-7.19;100.00;100774.88;4943004;29;20092;-83
2022/03/02 04:10:04;;;;;;;34.88;15.27;;;;;;;-7.21;100.00;100769.69;4942965;29;20043;-83
2022/03/02 04:12:49;;;;;;;33.33;14.35;;;;;;;-6.90;100.00;100825.91;4929290;29;20048;-83
2022/03/02 04:15:34;;;;;;;33.92;14.45;;;;;;;-7.03;100.00;100797.06;4929248;29;20028;-83
2022/03/02 04:18:20;;;;;;;37.72;14.70;;;;;;;-7.16;100.00;100772.50;4928680;29;20100;-83
2022/03/02 04:21:05;;;;;;;29.13;13.40;;;;;;;-7.29;100.00;100771.75;4929673;29;20028;-83
2022/03/02 04:23:50;;;;;;;27.83;12.80;;;;;;;-6.96;100.00;100819.56;4900490;29;20086;-83
2022/03/02 04:26:36;;;;;;;34.15;15.25;;;;;;;-6.94;100.00;100835.84;4929269;29;20043;-83
2022/03/02 04:29:21;;;;;;;32.70;15.00;;;;;;;-6.93;100.00;100843.56;4929345;29;20032;-83
2022/03/02 04:32:07;;;;;;;34.33;14.07;;;;;;;-7.02;100.00;100812.41;4929271;29;20029;-83
2022/03/02 04:34:52;;;;;;;41.65;15.98;;;;;;;-7.11;100.00;100791.50;4929193;29;20438;-83
2022/03/02 04:37:39;;;;;;;33.00;14.15;;;;;;;-6.89;100.00;100831.88;4929284;29;20028;-83
2022/03/02 04:40:25;;;;;;;45.47;17.55;;;;;;;-7.04;100.00;100802.94;4928706;29;20072;-83
2022/03/02 04:43:10;;;;;;;51.53;19.00;;;;;;;-7.13;100.00;100782.88;4916004;29;20032;-83
2022/03/02 04:45:56;;;;;;;60.40;20.02;;;;;;;-7.12;100.00;100771.91;4929227;29;20067;-83
2022/03/02 04:48:41;;;;;;;56.63;24.02;;;;;;;-7.33;100.00;100756.19;4928992;29;20032;-83
2022/03/02 04:51:26;;;;;;;50.80;22.33;;;;;;;-6.91;100.00;100828.38;4928947;29;20043;-83
2022/03/02 04:55:05;;;;;;;48.65;22.05;;;;;;;-7.21;100.00;100774.78;4915979;29;20039;-83
2022/03/02 04:57:16;;;;;;;48.10;20.65;;;;;;;-7.27;100.00;100755.72;4942766;29;20054;-83
2022/03/02 05:00:01;;;;;;;52.90;22.80;;;;;;;-7.22;100.00;100757.72;4915881;29;20032;-83
2022/03/02 05:02:48;;;;;;;60.28;25.10;;;;;;;-7.10;100.00;100780.53;4928904;29;20076;-83
2022/03/02 05:05:36;;;;;;;55.17;23.15;;;;;;;-7.19;100.00;100765.56;4942565;29;20076;-83
2022/03/02 05:08:22;;;;;;;72.70;26.55;;;;;;;-7.41;100.00;100745.56;4928765;29;20080;-83
2022/03/02 05:11:07;;;;;;;74.97;27.52;;;;;;;-7.30;100.00;100752.19;4942443;29;20032;-83
2022/03/02 05:13:52;;;;;;;80.72;29.55;;;;;;;-7.29;100.00;100746.28;4915706;29;20032;-83
2022/03/02 05:16:37;;;;;;;88.35;32.72;;;;;;;-7.05;100.00;100791.88;4915745;29;20032;-83
2022/03/02 05:19:22;;;;;;;79.63;31.50;;;;;;;-6.92;100.00;100817.31;4915769;29;20044;-83
2022/03/02 05:37:42;;;;;;;71.63;31.38;;;;;;;-7.14;100.00;100760.75;4990270;23;20118;-83
2022/03/02 06:33:18;;;;;;;149.68;52.55;;;;;;;-4.14;100.00;100789.13;6037749;23;19949;31
2022/03/02 06:36:06;;;;;;;211.88;74.55;;;;;;;-3.47;100.00;100788.97;4904701;29;19938;-82
2022/03/02 06:38:51;;;;;;;194.85;71.22;;;;;;;-2.83;100.00;100789.31;4920711;29;20025;-82
2022/03/02 06:42:22;;;;;;;211.70;75.93;;;;;;;-2.22;100.00;100757.72;4923054;29;20032;-82
2022/03/02 07:00:52;;;;;;;136.50;60.72;;;;;;;1.56;84.55;100775.78;4974233;29;20077;-89
2022/03/02 07:03:42;;;;;;;127.43;57.92;;;;;;;1.91;81.42;100788.72;4961489;29;20105;-92
2022/03/02 07:06:29;;;;;;;99.10;46.70;;;;;;;2.52;79.50;100791.91;4960561;29;20397;-93
2022/03/02 07:09:15;;;;;;;81.32;40.10;;;;;;;2.73;73.25;100782.06;4946870;29;20039;-93
2022/03/02 07:12:01;;;;;;;85.30;38.83;;;;;;;3.26;73.50;100790.09;4946552;29;20039;-93
2022/03/02 07:14:45;;;;;;;89.05;42.22;;;;;;;3.59;72.20;100777.75;4960713;29;20039;-93
2022/03/02 07:17:34;;;;;;;79.10;39.25;;;;;;;3.98;69.58;100782.78;4946269;29;20043;-92
2022/03/02 07:20:19;;;;;;;80.97;40.72;;;;;;;4.14;67.67;100774.41;4946738;29;20047;-92
2022/03/02 07:23:04;;;;;;;108.00;49.58;;;;;;;3.93;66.87;100767.16;4946426;29;20039;-92
2022/03/02 07:25:49;;;;;;;101.85;46.78;;;;;;;4.56;65.81;100775.94;4960523;29;20342;-90
2022/03/02 07:28:38;;;;;;;64.95;32.63;;;;;;;4.67;61.86;100757.91;4946237;29;20039;-90
2022/03/02 07:31:23;;;;;;;40.88;20.75;;;;;;;3.98;56.43;100759.44;4946484;29;20054;-90
2022/03/02 07:34:11;;;;;;;31.98;17.23;;;;;;;4.03;56.20;100768.19;4946434;29;20039;-91
2022/03/02 07:36:57;;;;;;;33.72;17.00;;;;;;;4.25;56.09;100771.97;4946424;29;20051;-91
2022/03/02 07:39:43;;;;;;;32.92;18.73;;;;;;;4.62;56.47;100769.97;4932526;29;20102;-92
2022/03/02 07:42:28;;;;;;;44.80;25.40;;;;;;;4.78;52.61;100764.13;4932705;29;20039;-91
2022/03/02 07:45:12;;;;;;;40.17;21.63;;;;;;;4.95;55.04;100768.69;4946205;29;20043;-91
2022/03/02 07:47:56;;;;;;;35.20;19.98;;;;;;;5.58;53.67;100758.16;4960100;29;20102;-89
2022/03/02 07:50:41;;;;;;;39.00;20.48;;;;;;;4.83;52.15;100757.28;4946127;29;20047;-91
2022/03/02 07:53:32;;;;;;;43.38;21.88;;;;;;;4.61;53.49;100758.69;4932132;29;20357;-90
2022/03/02 07:56:18;;;;;;;45.50;21.70;;;;;;;5.18;53.30;100754.25;4939826;29;20083;-91
2022/03/02 07:59:05;;;;;;;40.03;21.60;;;;;;;4.08;53.22;100747.50;4927010;29;20047;-91
2022/03/02 08:01:53;;;;;;;42.83;23.08;;;;;;;4.00;53.99;100752.59;4941095;29;20087;-92
2022/03/02 08:04:39;;;;;;;49.53;25.02;;;;;;;4.59;54.32;100750.03;4940966;29;20054;-92
2022/03/02 08:07:24;;;;;;;49.17;27.45;;;;;;;3.74;55.77;100749.53;4939659;29;20398;-93
2022/03/02 08:10:08;;;;;;;352.75;116.53;;;;;;;3.61;56.89;100745.00;4926757;29;20044;-91
2022/03/02 08:12:53;;;;;;;67.55;34.55;;;;;;;4.95;54.44;100737.53;4939697;29;20035;-92
2022/03/02 08:15:40;;;;;;;333.95;217.95;;;;;;;4.87;53.45;100727.88;4940245;29;20450;-91
2022/03/02 08:18:25;;;;;;;101.38;47.33;;;;;;;4.92;55.24;100736.63;4926520;29;20047;-92
2022/03/02 08:21:15;;;;;;;54.58;29.13;;;;;;;5.58;54.22;100726.09;4926532;29;20043;-91
2022/03/02 08:24:03;;;;;;;52.28;28.00;;;;;;;6.12;53.48;100739.63;4926496;29;20431;-91
2022/03/02 08:26:49;;;;;;;50.95;27.70;;;;;;;5.93;51.46;100731.66;4925932;29;20442;-90
2022/03/02 08:29:34;;;;;;;52.88;29.05;;;;;;;6.12;52.29;100731.81;4940023;29;20127;-90
2022/03/02 08:32:19;;;;;;;50.83;29.42;;;;;;;6.32;52.08;100740.63;4925693;29;20051;-91
2022/03/02 08:35:05;;;;;;;47.88;26.90;;;;;;;5.68;52.25;100735.72;4939129;29;20043;-91
2022/03/02 08:37:50;;;;;;;57.13;30.77;;;;;;;6.09;53.08;100730.91;4926358;29;20106;-92
2022/03/02 08:40:34;;;;;;;41.03;23.15;;;;;;;6.16;51.06;100724.03;4939661;29;20439;-92
2022/03/02 08:43:18;;;;;;;42.67;23.77;;;;;;;6.40;51.83;100732.88;4939084;29;20054;-90
2022/03/02 08:46:04;;;;;;;55.53;28.30;;;;;;;5.25;52.41;100737.00;4939238;29;20044;-92
2022/03/02 08:48:49;;;;;;;111.63;45.97;;;;;;;4.74;51.97;100732.91;4925477;29;20073;-90
2022/03/02 08:51:35;;;;;;;46.25;24.00;;;;;;;5.37;51.54;100726.75;4939954;29;20057;-91
2022/03/02 08:54:22;;;;;;;64.65;31.35;;;;;;;4.97;53.28;100722.81;4926046;29;20051;-92
2022/03/02 08:57:06;;;;;;;109.60;43.60;;;;;;;5.49;53.46;100723.41;4940029;29;20543;-92
2022/03/02 08:59:53;;;;;;;47.97;24.05;;;;;;;5.74;53.01;100717.59;4939058;29;20419;-93
2022/03/02 09:02:39;;;;;;;45.50;22.77;;;;;;;5.94;52.00;100712.59;4925439;29;20051;-90
2022/03/02 09:05:27;;;;;;;36.28;19.45;;;;;;;6.19;51.53;100710.19;4938589;29;20462;-91
2022/03/02 09:08:12;;;;;;;96.90;43.33;;;;;;;6.41;49.63;100722.47;4925163;29;20075;-93
2022/03/02 09:10:57;;;;;;;64.45;36.80;;;;;;;6.73;49.49;100716.59;4939173;29;20044;-92
2022/03/02 09:13:41;;;;;;;52.80;29.52;;;;;;;6.56;47.32;100708.66;4938537;29;20083;-92
2022/03/02 09:16:26;;;;;;;59.58;32.00;;;;;;;6.72;48.40;100712.22;4925761;29;20051;-93
2022/03/02 09:19:13;;;;;;;51.63;27.30;;;;;;;5.66;47.57;100713.19;4938508;29;20383;-92
2022/03/02 09:21:58;;;;;;;50.15;25.85;;;;;;;6.52;47.90;100702.59;4924972;29;20050;-94
2022/03/02 09:24:44;;;;;;;222.45;81.70;;;;;;;6.46;46.89;100697.34;4939862;29;20039;-92
2022/03/02 09:27:30;;;;;;;54.50;25.00;;;;;;;6.01;46.02;100691.00;4925346;29;20044;-92
2022/03/02 09:30:14;;;;;;;79.28;36.95;;;;;;;5.88;47.38;100691.69;4937905;29;20047;-92
2022/03/02 09:33:00;;;;;;;31.08;16.58;;;;;;;6.47;46.96;100686.09;4924509;29;20043;-93
2022/03/02 09:35:45;;;;;;;279.98;71.20;;;;;;;6.11;47.71;100683.22;4925768;29;20043;-92
2022/03/02 09:38:32;;;;;;;151.80;44.58;;;;;;;6.49;45.88;100688.69;4924394;29;20051;-92
2022/03/02 09:41:39;;;;;;;72.18;29.95;;;;;;;6.51;47.70;100687.84;4937546;29;20048;-93
2022/03/02 09:44:31;;;;;;;30.33;14.38;;;;;;;6.66;46.65;100686.16;4937137;29;20050;-94
2022/03/02 09:47:21;;;;;;;31.05;15.65;;;;;;;6.82;47.40;100685.38;4923206;29;20055;-92
2022/03/02 09:50:09;;;;;;;87.15;46.40;;;;;;;7.11;45.14;100675.06;4923064;29;20039;-92
2022/03/02 09:52:55;;;;;;;72.72;36.10;;;;;;;7.15;45.04;100684.63;4923085;29;20474;-92
2022/03/02 09:55:41;;;;;;;100.05;48.05;;;;;;;6.93;45.70;100672.41;4913185;29;20056;-92
2022/03/02 09:58:27;;;;;;;50.42;23.88;;;;;;;6.95;44.73;100673.25;4919760;29;20044;-93
2022/03/02 10:01:15;;;;;;;37.75;16.73;;;;;;;6.94;42.05;100667.19;4919137;29;20123;-93
2022/03/02 10:04:13;;;;;;;48.78;21.73;;;;;;;6.61;44.59;100667.06;4933036;29;20055;-93
2022/03/02 10:07:26;;;;;;;60.05;26.67;;;;;;;6.88;43.76;100674.97;4919935;29;20465;-91
2022/03/02 10:10:18;;;;;;;44.72;24.17;;;;;;;7.18;42.23;100666.41;4919633;29;20447;-90
2022/03/02 10:13:12;;;;;;;33.17;15.55;;;;;;;7.24;41.04;100661.19;4905640;29;20100;-90
2022/03/02 10:15:57;;;;;;;23.05;12.23;;;;;;;7.07;43.12;100667.22;4932455;29;20054;-90
2022/03/02 10:18:42;;;;;;;50.13;21.85;;;;;;;6.65;42.98;100661.00;4922925;29;20047;-92
2022/03/02 10:21:39;;;;;;;39.42;19.05;;;;;;;7.34;43.09;100645.56;4936278;29;20075;-92
2022/03/02 10:24:25;;;;;;;51.47;23.70;;;;;;;6.92;43.89;100640.28;4922565;29;20059;-90
2022/03/02 10:27:34;;;;;;;35.40;18.33;;;;;;;7.27;43.24;100647.31;4922538;29;20052;-90
2022/03/02 10:30:18;;;;;;;24.63;13.70;;;;;;;7.31;42.89;100633.41;4922390;29;20083;-92
2022/03/02 10:33:22;;;;;;;26.65;14.40;;;;;;;7.48;43.43;100630.84;4935830;29;20048;-90
2022/03/02 10:36:09;;;;;;;62.17;29.45;;;;;;;7.12;42.09;100639.47;4922915;29;20115;-90
2022/03/02 10:38:59;;;;;;;45.72;21.98;;;;;;;5.81;43.73;100635.31;4926058;29;20044;-91
2022/03/02 10:41:45;;;;;;;41.03;19.25;;;;;;;6.63;43.24;100628.88;4922253;29;20048;-92
2022/03/02 10:45:03;;;;;;;20.85;11.48;;;;;;;7.32;41.55;100627.34;4935798;29;20119;-92
2022/03/02 10:48:13;;;;;;;17.08;9.52;;;;;;;7.60;41.64;100620.38;4923322;29;20423;-92
2022/03/02 10:50:59;;;;;;;64.53;25.02;;;;;;;7.79;41.10;100616.03;4922601;29;20426;-91
2022/03/02 10:53:47;;;;;;;23.83;11.93;;;;;;;7.94;40.00;100617.78;4935433;29;20107;-91
2022/03/02 10:56:44;;;;;;;304.00;82.63;;;;;;;6.97;40.41;100616.84;4940821;29;20055;-92
2022/03/02 10:59:31;;;;;;;34.65;15.35;;;;;;;6.62;40.86;100612.38;4941767;29;20050;-92
2022/03/02 11:02:21;;;;;;;23.65;11.70;;;;;;;7.44;40.28;100609.13;4942150;29;20415;-93
2022/03/02 11:05:09;;;;;;;22.77;11.60;;;;;;;7.64;40.21;100595.22;4941392;29;20043;-92
2022/03/02 11:07:54;;;;;;;150.98;36.60;;;;;;;7.40;38.98;100601.28;4941004;29;20044;-91
2022/03/02 11:10:40;;;;;;;23.83;12.45;;;;;;;7.50;39.54;100595.19;4941282;29;20043;-92
2022/03/02 11:13:26;;;;;;;21.20;13.07;;;;;;;7.81;39.70;100589.97;4927578;29;20055;-92
2022/03/02 11:16:19;;;;;;;22.45;12.80;;;;;;;8.08;38.87;100596.88;4940901;29;20063;-92
2022/03/02 11:19:11;;;;;;;32.60;15.33;;;;;;;7.97;38.67;100589.94;4941885;29;20067;-92
2022/03/02 11:21:57;;;;;;;33.63;15.65;;;;;;;8.02;38.53;100587.31;4940531;29;20050;-92
2022/03/02 11:24:42;;;;;;;63.47;23.45;;;;;;;7.62;40.20;100589.97;4927403;29;20044;-92
2022/03/02 11:27:38;;;;;;;33.40;14.82;;;;;;;7.08;41.04;100588.22;4926956;29;20103;-92
2022/03/02 11:30:23;;;;;;;32.50;15.82;;;;;;;7.78;41.49;100576.94;4927161;29;20043;-92
2022/03/02 11:33:08;;;;;;;30.58;15.05;;;;;;;7.57;40.22;100560.44;4926914;29;20051;-90
2022/03/02 11:35:59;;;;;;;29.58;14.27;;;;;;;8.13;39.49;100572.50;4940662;29;20116;-92
2022/03/02 11:38:47;;;;;;;21.90;12.85;;;;;;;8.32;38.96;100556.75;4927295;29;20064;-92
2022/03/02 11:41:33;;;;;;;21.70;11.55;;;;;;;8.48;37.34;100570.66;4941477;29;20135;-92
2022/03/02 11:44:37;;;;;;;20.95;11.70;;;;;;;8.50;37.22;100567.16;4940886;29;20048;-92
2022/03/02 11:47:21;;;;;;;;;;;;;;;8.48;36.73;100561.06;4940535;29;20358;-92
2022/03/02 11:50:09;;;;;;;19.70;11.52;;;;;;;8.42;37.11;100546.34;4940594;29;19923;-92
2022/03/02 11:52:53;;;;;;;21.65;12.48;;;;;;;8.33;36.69;100548.06;4941131;29;20050;-92
2022/03/02 11:55:39;;;;;;;25.55;12.93;;;;;;;7.85;38.24;100539.53;4950230;28;20063;-92
2022/03/02 11:58:23;;;;;;;24.65;13.05;;;;;;;8.25;38.00;100537.66;4946077;29;20078;-92
2022/03/02 12:01:07;;;;;;;25.92;13.25;;;;;;;7.79;36.21;100543.00;4959691;29;20386;-92
2022/03/02 12:04:03;;;;;;;28.80;16.20;;;;;;;6.78;38.42;100537.81;4946030;29;20039;-92
2022/03/02 12:06:51;;;;;;;25.60;13.98;;;;;;;7.09;38.64;100525.72;4932242;29;20457;-92
2022/03/02 12:09:38;;;;;;;24.88;12.57;;;;;;;7.33;38.87;100523.97;4959923;29;20047;-92
2022/03/02 12:12:22;;;;;;;21.02;11.60;;;;;;;7.65;38.62;100514.38;4960056;29;20150;-89
2022/03/02 12:15:07;;;;;;;28.70;12.35;;;;;;;7.52;37.78;100510.03;4932397;29;20059;-92
2022/03/02 12:18:06;;;;;;;20.35;11.52;;;;;;;8.02;37.25;100509.03;4959891;29;20039;-92
2022/03/02 12:20:56;;;;;;;22.38;11.38;;;;;;;8.05;36.31;100513.38;4959845;29;20039;-90
2022/03/02 12:23:53;;;;;;;28.52;14.88;;;;;;;8.05;36.59;100505.56;4945063;29;20327;-89
2022/03/02 12:26:46;;;;;;;26.15;16.83;;;;;;;8.08;37.07;100501.19;4945427;29;20039;-90
2022/03/02 12:29:31;;;;;;;;;;;;;;;8.31;36.52;100503.69;4945359;29;20066;-91
2022/03/02 12:32:17;;;;;;;22.13;12.35;;;;;;;8.56;37.22;100494.03;4945434;29;19930;-91
2022/03/02 12:35:08;;;;;;;18.25;10.50;;;;;;;8.39;36.29;100493.28;4945427;29;20330;-91
2022/03/02 12:37:56;;;;;;;18.48;10.32;;;;;;;8.57;36.31;100498.38;4959522;29;20051;-91
2022/03/02 12:40:42;;;;;;;29.33;14.00;;;;;;;8.41;36.14;100488.88;4947193;29;20434;-89
2022/03/02 12:43:27;;;;;;;21.45;12.18;;;;;;;8.54;35.89;100480.09;4959423;29;20062;-91
2022/03/02 12:46:12;;;;;;;23.05;10.60;;;;;;;8.73;35.98;100482.63;4959389;29;20044;-91
2022/03/02 12:48:58;;;;;;;41.22;18.35;;;;;;;8.28;35.35;100488.06;4944753;29;20043;-90
2022/03/02 12:51:46;;;;;;;34.05;15.07;;;;;;;8.69;36.42;100479.16;4958575;29;20043;-90
2022/03/02 12:54:33;;;;;;;24.58;13.00;;;;;;;8.62;35.62;100473.09;4941440;29;20339;-90
2022/03/02 12:57:21;;;;;;;25.25;13.25;;;;;;;8.68;36.00;100467.00;4956765;29;20043;-90
2022/03/02 13:00:17;;;;;;;29.70;14.95;;;;;;;8.52;36.93;100465.34;4929146;29;20046;-89
2022/03/02 13:03:06;;;;;;;49.35;30.35;;;;;;;8.30;37.16;100473.25;4937637;29;20047;-86
2022/03/02 13:05:55;;;;;;;33.03;17.50;;;;;;;8.08;34.38;100466.41;4937611;29;20043;-88
2022/03/02 13:08:46;;;;;;;26.48;13.25;;;;;;;7.88;36.11;100459.53;4923551;29;20044;-89
2022/03/02 13:11:33;;;;;;;37.33;19.92;;;;;;;7.69;36.31;100447.44;4923740;29;20127;-89
2022/03/02 13:14:32;;;;;;;22.17;11.38;;;;;;;7.66;35.87;100452.66;4937485;29;20040;-91
2022/03/02 13:17:18;;;;;;;40.88;17.23;;;;;;;8.05;36.98;100445.56;4909939;29;20557;-88
2022/03/02 13:20:15;;;;;;;26.42;13.43;;;;;;;8.21;36.32;100449.81;4923321;29;20043;-87
2022/03/02 13:23:22;;;;;;;17.35;11.45;;;;;;;7.70;36.77;100444.84;4909848;29;20048;-87
2022/03/02 13:26:07;;;;;;;29.90;17.42;;;;;;;7.84;38.16;100443.91;4923178;29;20354;-88
2022/03/02 13:29:08;;;;;;;23.73;11.93;;;;;;;7.29;37.47;100442.31;4937609;29;20040;-89
2022/03/02 13:32:02;;;;;;;23.48;13.40;;;;;;;7.05;37.31;100424.97;4939291;29;20044;-89
2022/03/02 13:35:09;;;;;;;19.42;11.45;;;;;;;7.54;38.59;100439.63;4895793;29;20086;-90
2022/03/02 13:37:58;;;;;;;18.98;12.60;;;;;;;7.20;37.93;100432.75;4938890;29;20043;-89
2022/03/02 13:40:45;;;;;;;19.35;10.82;;;;;;;7.13;38.02;100433.66;4938506;29;20047;-88
2022/03/02 13:43:33;;;;;;;16.98;9.18;;;;;;;7.28;38.39;100429.28;4926041;29;20044;-89
2022/03/02 13:46:19;;;;;;;18.70;11.10;;;;;;;6.86;38.25;100411.09;4924583;29;20390;-91
2022/03/02 13:49:03;;;;;;;18.73;9.65;;;;;;;7.08;38.35;100416.28;4924429;29;20043;-90
2022/03/02 13:51:49;;;;;;;18.60;10.80;;;;;;;6.89;38.17;100420.63;4910522;29;20047;-89
2022/03/02 13:54:34;;;;;;;18.55;11.48;;;;;;;6.71;38.19;100413.69;4938248;29;20044;-86
2022/03/02 13:57:23;;;;;;;27.77;13.63;;;;;;;6.66;38.49;100411.13;4924845;29;20048;-91
2022/03/02 14:00:20;;;;;;;33.53;16.02;;;;;;;6.83;38.71;100410.25;4938744;29;20039;-91
2022/03/02 14:03:05;;;;;;;28.80;13.77;;;;;;;6.83;38.70;100407.63;4924819;29;20063;-87
2022/03/02 14:05:50;;;;;;;21.30;11.48;;;;;;;6.45;37.40;100401.53;4939198;29;20039;-89
2022/03/02 14:08:51;;;;;;;16.90;10.57;;;;;;;6.44;36.84;100397.22;4911344;29;20063;-92
2022/03/02 14:11:40;;;;;;;17.88;10.43;;;;;;;6.48;38.51;100387.66;4924446;29;20125;-91
2022/03/02 14:14:27;;;;;;;21.35;10.07;;;;;;;6.40;39.31;100399.78;4938850;29;20051;-90
2022/03/02 14:17:12;;;;;;;22.25;11.02;;;;;;;6.44;40.54;100398.94;4938654;29;20044;-85
2022/03/02 14:19:56;;;;;;;21.45;11.98;;;;;;;6.13;41.63;100385.88;4938803;29;20067;-91
2022/03/02 14:22:41;;;;;;;23.48;12.07;;;;;;;6.04;41.85;100383.25;4938523;29;20040;-91
2022/03/02 14:25:26;;;;;;;24.63;12.13;;;;;;;6.03;43.43;100397.13;4924393;29;20083;-91
2022/03/02 14:28:14;;;;;;;20.20;11.05;;;;;;;5.91;43.06;100390.09;4938368;29;20335;-91
2022/03/02 14:30:59;;;;;;;21.20;12.38;;;;;;;5.84;44.49;100383.16;4924866;29;20044;-91
2022/03/02 14:33:54;;;;;;;297.45;109.65;;;;;;;5.67;43.76;100377.91;4938334;29;20043;-91
2022/03/02 14:36:38;;;;;;;223.48;72.93;;;;;;;5.75;43.55;100375.31;4910976;29;20418;-91
2022/03/02 14:39:23;;;;;;;249.60;69.05;;;;;;;5.76;43.27;100371.88;4924243;29;20051;-91
2022/03/02 14:42:16;;;;;;;153.77;54.75;;;;;;;5.45;43.62;100382.13;4924443;29;20055;-91
2022/03/02 14:45:29;;;;;;;102.40;37.50;;;;;;;5.60;44.53;100381.34;4938270;29;20048;-91
2022/03/02 14:48:22;;;;;;;344.48;84.20;;;;;;;5.53;44.39;100376.97;4937267;29;20040;-90
2022/03/02 14:51:07;;;;;;;238.40;70.10;;;;;;;5.52;44.20;100383.88;4908869;29;20044;-91